Address 0x6923aac771dde18fc8a2c8e6b51fb9ca1580e0a1

 
Txn Hash Method
Block
From
To
Value [Txn Fee]
0x58b7c5b4131f212774c00092cc92baa55bea8501a619bfb6fc844f5dca548863Transfer219684532021-11-30 9:07:147 mins ago0x9e1980070743cb86bdbe3ae1d01018c6e97b0932 IN 0x6923aac771dde18fc8a2c8e6b51fb9ca1580e0a17 MATIC0.002793
0x231ee705c0779786380ae13a69a122a3698ab3289bdc8d026444bfed4d2b16e5Execute Meta Tra...219684502021-11-30 9:07:087 mins ago0x6923aac771dde18fc8a2c8e6b51fb9ca1580e0a1OUT 0x89aac1f5ccdd54dd8a09e5c858f19a665e4fa32b0 MATIC0.028485807
0xa1731a4f9d4c579fcb5214fae19d6262ffa796118fce5911500f6d2dd771f9f7Execute Meta Tra...219681112021-11-30 8:55:2619 mins ago0x6923aac771dde18fc8a2c8e6b51fb9ca1580e0a1OUT 0x89aac1f5ccdd54dd8a09e5c858f19a665e4fa32b0 MATIC0.028484211
0xf618a98769c00084bac24cf102609c06bac1153ebd0c89f6ae2d58c8d0ca4afdExecute Meta Tra...219677442021-11-30 8:42:4931 mins ago0x6923aac771dde18fc8a2c8e6b51fb9ca1580e0a1OUT 0x89aac1f5ccdd54dd8a09e5c858f19a665e4fa32b0 MATIC0.0270921255
0x91208adcab1da5f172098d614250826ad70295ffec8e0b835f0043d60f8d4da9Execute Meta Tra...219668032021-11-30 8:10:141 hr 4 mins ago0x6923aac771dde18fc8a2c8e6b51fb9ca1580e0a1OUT 0x89aac1f5ccdd54dd8a09e5c858f19a665e4fa32b0 MATIC0.028484211
0x1de4663b6896ae484f853d7197dcd90e726a354ca7b10a424b8c4cef82be5bebExecute Meta Tra...219661772021-11-30 7:48:061 hr 26 mins ago0x6923aac771dde18fc8a2c8e6b51fb9ca1580e0a1OUT 0x89aac1f5ccdd54dd8a09e5c858f19a665e4fa32b0 MATIC0.028484211
0xdbcb20f2fd89efc0e70188ce156f8c1f1564894c2e7b27c41859574986b75dd7Execute Meta Tra...219656022021-11-30 7:28:201 hr 46 mins ago0x6923aac771dde18fc8a2c8e6b51fb9ca1580e0a1OUT 0x1fdc5e69729eecf8e933c904e86faf7a8886f6610 MATIC0.046503184
0x99f48bb88f2285a410e3d656de3ef840653a620ab029fb40df1f9fdea33fe715Execute Meta Tra...219652232021-11-30 7:15:001 hr 59 mins ago0x6923aac771dde18fc8a2c8e6b51fb9ca1580e0a1OUT 0xbf79ce2fbd819e5abc2327563d02a200255b7cb30 MATIC0.006554373
0x682e6c7fbd9ea60fa2bf715b793ce299292eb8cf0109e988bcd143cd0bd9513fExecute Meta Tra...219644562021-11-30 6:44:192 hrs 30 mins ago0x6923aac771dde18fc8a2c8e6b51fb9ca1580e0a1OUT 0xfe90e4ada3c9a78154ccc5343827ce652d8519f90 MATIC0.23936143
0x1217bd5bb7cae1a1486c362d1f838e020c9a3a76cae4b72f1a7ce8aa99d67a34Execute Meta Tra...219641012021-11-30 6:32:012 hrs 42 mins ago0x6923aac771dde18fc8a2c8e6b51fb9ca1580e0a1OUT 0x7adbced399630dd11a97f2e2dc206911167071ae0 MATIC0.023939734
0x82c7b9dd3d88f699ad5ccd64a8274881968c71bbd38ad8f49eefe87589fcbfe2Execute Meta Tra...219637162021-11-30 6:18:472 hrs 55 mins ago0x6923aac771dde18fc8a2c8e6b51fb9ca1580e0a1OUT 0x7adbced399630dd11a97f2e2dc206911167071ae0 MATIC0.023942926
0x506ec899792bad1515c57a6e0ac8418c4f11f260e049be9facb2fcb662651df3Execute Meta Tra...219634762021-11-30 6:10:313 hrs 4 mins ago0x6923aac771dde18fc8a2c8e6b51fb9ca1580e0a1OUT 0x89aac1f5ccdd54dd8a09e5c858f19a665e4fa32b0 MATIC0.028485807
0x1a757cac7a94c1d7c6ff8acc6b6f96695d39b37ce7f1073467ac7fc3bb147eaaExecute Meta Tra...219628852021-11-30 5:50:133 hrs 24 mins ago0x6923aac771dde18fc8a2c8e6b51fb9ca1580e0a1OUT 0xeda1f66f5c765ac16b4333c53f3f83f781d01c8b0 MATIC0.135465288
0xf6b639c10057b1b35aa64b07e4831fc50ff6d6e2726cc1b5bd025e70e47dfaf8Execute Meta Tra...219622872021-11-30 5:29:373 hrs 44 mins ago0x6923aac771dde18fc8a2c8e6b51fb9ca1580e0a1OUT 0x89aac1f5ccdd54dd8a09e5c858f19a665e4fa32b0 MATIC0.028484211
0x39c3a876da5ca4dfd3cd1b24028e18d6f7a51a72dbe4c1fb05c6f91607a3a763Execute Meta Tra...219620452021-11-30 5:21:093 hrs 53 mins ago0x6923aac771dde18fc8a2c8e6b51fb9ca1580e0a1OUT 0x89aac1f5ccdd54dd8a09e5c858f19a665e4fa32b0 MATIC0.028482615
0x3eda9e99d6637e139451db6eb1e28871808344b611c821624f51e5c4fabc6f91Execute Meta Tra...219619592021-11-30 5:15:583 hrs 58 mins ago0x6923aac771dde18fc8a2c8e6b51fb9ca1580e0a1OUT 0xa5f1ea7df861952863df2e8d1312f7305dabf2150 MATIC0.014829234
0x2990538e8009a9bbad4a0b02a7c9651b54781c99588cd0aa5bec22a1a4ec8fb2Execute Meta Tra...219612522021-11-30 4:46:404 hrs 27 mins ago0x6923aac771dde18fc8a2c8e6b51fb9ca1580e0a1OUT 0x89aac1f5ccdd54dd8a09e5c858f19a665e4fa32b0 MATIC0.028485807
0x3f68f252ad4374081433f4b0ef1d3a7013f309296490fef3a992424e6f3d50e2Execute Meta Tra...219605272021-11-30 4:20:234 hrs 54 mins ago0x6923aac771dde18fc8a2c8e6b51fb9ca1580e0a1OUT 0x89aac1f5ccdd54dd8a09e5c858f19a665e4fa32b0 MATIC0.028484211
0xe8d7b7f42157f41bca9891f8229f2053e3f8a1b70c639ee93501e1cbe4dc7d68Execute Meta Tra...219603652021-11-30 4:14:474 hrs 59 mins ago0x6923aac771dde18fc8a2c8e6b51fb9ca1580e0a1OUT 0x89aac1f5ccdd54dd8a09e5c858f19a665e4fa32b0 MATIC0.028484211
0x7c5ce8803dbae60cf82d4aad85eb306b6633f1aec3b217cbf1aef347c8cb3a6aExecute Meta Tra...219594502021-11-30 3:39:055 hrs 35 mins ago0x6923aac771dde18fc8a2c8e6b51fb9ca1580e0a1OUT 0x89aac1f5ccdd54dd8a09e5c858f19a665e4fa32b0 MATIC0.028485807
0x91793a1393e8e3c81689c2808a90706a7276af899da18850597e4f9bb46560feExecute Meta Tra...219593002021-11-30 3:33:565 hrs 40 mins ago0x6923aac771dde18fc8a2c8e6b51fb9ca1580e0a1OUT 0x89aac1f5ccdd54dd8a09e5c858f19a665e4fa32b0 MATIC0.010922517
0x56b3848f0ad6a79374977efc90bca70bf0f4cc4a6ebba618ad4d5d5f6f1816b7Execute Meta Tra...219591012021-11-30 3:26:575 hrs 47 mins ago0x6923aac771dde18fc8a2c8e6b51fb9ca1580e0a1OUT 0x7adbced399630dd11a97f2e2dc206911167071ae0 MATIC0.02394133
0x84fcae512a9d889d4fb5b955e6d9911730ab22f1c977bb087709aaa96b489a8aExecute Meta Tra...219589122021-11-30 3:20:315 hrs 54 mins ago0x6923aac771dde18fc8a2c8e6b51fb9ca1580e0a1OUT 0x89aac1f5ccdd54dd8a09e5c858f19a665e4fa32b0 MATIC0.028484211
0x90160ff4eeda9764785bacdbed40cf620bd93f134b8a73ae462a474ba8cf5c8cExecute Meta Tra...219586862021-11-30 3:12:436 hrs 1 min ago0x6923aac771dde18fc8a2c8e6b51fb9ca1580e0a1OUT 0xa5f1ea7df861952863df2e8d1312f7305dabf2150 MATIC0.014829234
0xc0740ab19e00222bd1ab1da0fccc9369397459f6c55c3183aca02779c9a7c9d3Execute Meta Tra...219585702021-11-30 3:08:436 hrs 5 mins ago0x6923aac771dde18fc8a2c8e6b51fb9ca1580e0a1OUT 0x7adbced399630dd11a97f2e2dc206911167071ae0 MATIC0.023942793
[ Download CSV Export 
Parent Txn Hash Block From To Value
Loading

Contract Name:
0 MATIC

Compiler Version
0

Optimization Enabled:
0 MATIC

Other Settings:
-NA-
Block Transaction Gas Used Reward
Age Block Fee Address BC Fee Address Voting Power Jailed Incoming
Block Uncle Number Difficulty Gas Used Reward
Loading
Loading
Make sure to use the "Vote Down" button for any spammy posts, and the "Vote Up" for interesting conversations.